Latest Coastal Weather Observations for Yanakie

IDV60701

Issued at 3:02 am EDT Saturday 25 March 2017 (issued every 10 minutes, with the page automatically refreshed every 10 minutes)

About coastal observations | Map of coastal stations | Coastal observations for VIC | Marine services | Other Formats
Station Details ID: 085301 Name: YANAKIE Lat: -38.81 Lon: 146.19 Height: 13.3 m
Data from the previous 72 hours. | See also: Recent months at Yanakie
Date/Time
EDT
Temp
°C
Wind Pressure Rain since
9am
mm
Weather Cloud Vis
km
Sea
Height
m
Swell
Dir  Spd
kts
Gust
kts
hPa Trend Height
m
Period
s
Dir
25/03:00am 17.3 ENE 10 15 1014.1 - 0.2 - - - - - - -
25/02:30am 17.5 ENE 11 16 1014.8 - 0.2 - - - - - - -
25/02:00am 17.5 ENE 12 17 1015.1 - 0.2 - - - - - - -
25/01:30am 17.6 ENE 13 18 1015.1 - 0.2 - - - - - - -
25/01:00am 17.6 ENE 14 21 1015.7 - 0.2 - - - - - - -
25/12:30am 17.6 ENE 14 21 1015.6 - 0.2 - - - - - - -
25/12:00am 17.7 ENE 13 21 1016.1 - 0.2 - - - - - - -
 
Date/Time
EDT
Temp
°C
Wind Pressure Rain since
9am
mm
Weather Cloud Vis
km
Sea
Height
m
Swell
Dir  Spd
kts
Gust
kts
hPa Trend Height
m
Period
s
Dir
24/11:30pm 17.9 ENE 14 20 1016.2 - 0.2 - - - - - - -
24/11:00pm 17.9 ENE 14 20 1016.3 - 0.2 - - - - - - -
24/10:30pm 17.9 ENE 15 20 1016.6 - 0.2 - - - - - - -
24/10:00pm 18.0 ENE 16 24 1017.0 - 0.2 - - - - - - -
24/09:30pm 17.9 ENE 15 21 1017.2 - 0.2 - - - - - - -
24/09:00pm 17.9 ENE 16 26 1017.2 - 0.2 - - - - - - -
24/08:30pm 17.9 ENE 16 26 1017.3 - 0.2 - - - - - - -
24/08:27pm 18.0 ENE 15 26 1017.4 - 0.2 - - - - - - -
24/08:00pm 17.9 ENE 16 25 1017.3 - 0.2 - - - - - - -
24/07:30pm 18.0 ENE 16 24 1017.8 - 0.2 - - - - - - -
24/07:00pm 18.2 ENE 17 24 1017.2 - 0.2 - - - - - - -
24/06:30pm 18.6 ENE 17 25 1017.9 - 0.2 - - - - - - -
24/06:00pm 18.8 ENE 17 25 1017.1 - 0.2 - - - - - - -
24/05:30pm 18.9 ENE 17 23 1017.3 - 0.2 - - - - - - -
24/05:00pm 19.4 ENE 15 24 1017.3 - 0.2 - - - - - - -
24/04:30pm 19.6 ENE 16 23 1017.9 - 0.2 - - - - - - -
24/04:00pm 20.2 ENE 16 22 1017.5 - 0.2 - - - - - - -
24/03:30pm 19.3 E 14 21 1018.3 - 0.2 - - - - - - -
24/03:00pm 19.7 ENE 16 23 1018.6 - 0.2 - - - - - - -
24/02:30pm 19.2 ENE 13 19 1019.5 - 0.2 - - - - - - -
24/02:00pm 19.4 ENE 14 20 1019.7 - 0.2 - - - - - - -
24/01:30pm 19.3 E 12 19 1020.3 - 0.2 - - - - - - -
24/01:00pm 19.4 ENE 12 18 1020.9 - 0.2 - - - - - - -
24/12:30pm 18.9 E 10 16 1021.4 - 0.2 - - - - - - -
24/12:00pm 18.7 E 12 19 1022.1 - 0.2 - - - - - - -
24/11:30am 19.0 E 13 22 1021.9 - 0.2 - - - - - - -
24/11:00am 19.9 E 13 20 1021.8 - 0.2 - - - - - - -
24/10:30am 18.7 E 12 19 1021.9 - 0.2 - - - - - - -
24/10:00am 18.3 E 10 17 1021.8 - 0.0 - - - - - - -
24/09:30am 18.3 ENE 12 18 1021.9 - 0.0 - - - - - - -
24/09:00am 18.2 ENE 13 19 1021.5 - 0.0 - - - - - - -
24/08:30am 17.8 ENE 13 20 1021.2 - 0.0 - - - - - - -
24/08:00am 17.4 ENE 14 21 1021.0 - 0.0 - - - - - - -
24/07:30am 17.3 ENE 13 19 1020.7 - 0.0 - - - - - - -
24/07:00am 16.9 ENE 10 15 1020.6 - 0.0 - - - - - - -
24/06:30am 17.2 ENE 13 20 1020.3 - 0.0 - - - - - - -
24/06:00am 17.3 ENE 12 17 1020.2 - 0.0 - - - - - - -
24/05:30am 17.4 ENE 11 16 1020.4 - 0.0 - - - - - - -
24/05:00am 16.9 E 10 16 1020.4 - 0.0 - - - - - - -
24/04:30am 17.0 E 7 12 1020.8 - 0.0 - - - - - - -
24/04:00am 17.1 ESE 6 9 1021.8 - 0.0 - - - - - - -
24/03:30am 17.2 E 6 9 1022.0 - 0.0 - - - - - - -
24/03:00am 16.6 E 5 9 1021.8 - 0.0 - - - - - - -
24/02:30am 16.8 E 7 10 1021.8 - 0.0 - - - - - - -
24/02:00am 16.8 E 10 15 1021.5 - 0.0 - - - - - - -
24/01:30am 16.5 E 9 14 1021.5 - 0.0 - - - - - - -
24/01:00am 16.6 E 9 17 1021.9 - 0.0 - - - - - - -
24/12:30am 16.4 ESE 8 16 1022.6 - 0.0 - - - - - - -
24/12:00am 16.1 ESE 6 9 1022.8 - 0.0 - - - - - - -
 
Date/Time
EDT
Temp
°C
Wind Pressure Rain since
9am
mm
Weather Cloud Vis
km
Sea
Height
m
Swell
Dir  Spd
kts
Gust
kts
hPa Trend Height
m
Period
s
Dir
23/11:30pm 16.6 ESE 8 12 1022.9 - 0.0 - - - - - - -
23/11:00pm 16.8 ESE 8 12 1023.0 - 0.0 - - - - - - -
23/10:30pm 16.8 ESE 7 11 1023.2 - 0.0 - - - - - - -
23/10:00pm 17.1 ESE 9 14 1023.0 - 0.0 - - - - - - -
23/09:30pm 17.3 E 8 13 1022.9 - 0.0 - - - - - - -
23/09:00pm 17.5 E 8 12 1022.5 - 0.0 - - - - - - -
23/08:30pm 17.4 E 8 13 1022.2 - 0.0 - - - - - - -
23/08:00pm 17.7 E 9 14 1021.7 - 0.0 - - - - - - -
23/07:30pm 17.7 E 10 16 1021.8 - 0.0 - - - - - - -
23/07:00pm 18.1 E 9 14 1021.8 - 0.0 - - - - - - -
23/06:30pm 18.5 E 9 15 1021.6 - 0.0 - - - - - - -
23/06:00pm 18.6 E 11 19 1021.5 - 0.0 - - - - - - -
23/05:30pm 19.0 E 10 16 1021.4 - 0.0 - - - - - - -
23/05:00pm 19.3 E 11 17 1021.3 - 0.0 - - - - - - -
23/04:30pm 19.8 E 11 18 1021.4 - 0.0 - - - - - - -
23/04:00pm 20.0 ESE 10 16 1021.5 - 0.0 - - - - - - -
23/03:30pm 20.9 E 12 18 1021.5 - 0.0 - - - - - - -
23/03:00pm 20.9 E 12 20 1021.4 - 0.0 - - - - - - -
23/02:30pm 20.1 E 13 22 1021.6 - 0.0 - - - - - - -
23/02:00pm 20.6 ESE 12 19 1021.9 - 0.0 - - - - - - -
23/01:30pm 20.5 E 12 19 1022.1 - 0.0 - - - - - - -
23/01:00pm 20.3 ESE 11 18 1022.5 - 0.0 - - - - - - -
23/12:30pm 21.3 ESE 11 18 1022.6 - 0.0 - - - - - - -
23/12:00pm 20.6 ESE 12 17 1022.6 - 0.0 - - - - - - -
23/11:30am 20.1 ESE 10 16 1022.8 - 0.0 - - - - - - -
23/11:00am 20.1 E 11 17 1022.8 - 0.0 - - - - - - -
23/10:30am 18.9 ESE 10 16 1022.9 - 0.0 - - - - - - -
23/10:00am 18.9 ESE 10 17 1022.8 - 0.0 - - - - - - -
23/09:30am 18.4 ESE 9 15 1022.8 - 0.0 - - - - - - -
23/09:00am 18.0 ESE 9 13 1022.9 - 0.8 - - - - - - -
23/08:30am 17.1 ESE 8 13 1022.7 - 0.8 - - - - - - -
23/08:00am 16.9 ESE 8 13 1022.5 - 0.8 - - - - - - -
23/07:30am 16.9 ESE 10 15 1022.1 - 0.8 - - - - - - -
23/07:00am 16.9 E 11 16 1021.9 - 0.8 - - - - - - -
23/06:30am 16.7 ESE 9 16 1021.7 - 0.8 - - - - - - -
23/06:00am 16.6 ESE 10 14 1021.5 - 0.8 - - - - - - -
23/05:30am 16.4 ESE 10 14 1021.2 - 0.8 - - - - - - -
23/05:00am 16.3 ESE 12 17 1021.3 - 0.8 - - - - - - -
23/04:30am 16.3 ESE 10 15 1021.3 - 0.8 - - - - - - -
23/04:00am 16.2 ESE 10 15 1021.3 - 0.8 - - - - - - -
23/03:30am 16.7 ESE 9 13 1021.4 - 0.8 - - - - - - -
23/03:00am 16.8 ESE 8 12 1021.6 - 0.8 - - - - - - -
23/02:30am 16.7 ESE 9 14 1021.6 - 0.8 - - - - - - -
23/02:00am 16.5 ESE 10 16 1021.7 - 0.8 - - - - - - -
23/01:30am 16.2 E 10 14 1021.7 - 0.8 - - - - - - -
23/01:00am 16.2 ESE 9 15 1021.7 - 0.8 - - - - - - -
23/12:30am 16.1 ESE 8 13 1021.8 - 0.8 - - - - - - -
23/12:00am 16.1 ESE 8 13 1022.0 - 0.8 - - - - - - -
 
Date/Time
EDT
Temp
°C
Wind Pressure Rain since
9am
mm
Weather Cloud Vis
km
Sea
Height
m
Swell
Dir  Spd
kts
Gust
kts
hPa Trend Height
m
Period
s
Dir
22/11:30pm 16.1 ESE 8 13 1022.0 - 0.8 - - - - - - -
22/11:00pm 16.3 E 9 16 1021.8 - 0.8 - - - - - - -
22/10:30pm 16.7 E 9 14 1022.0 - 0.8 - - - - - - -
22/10:00pm 16.9 ESE 8 13 1021.9 - 0.8 - - - - - - -
22/09:30pm 17.1 ESE 10 17 1021.5 - 0.8 - - - - - - -
22/09:00pm 17.0 ESE 10 14 1021.0 - 0.8 - - - - - - -
22/08:30pm 16.9 ESE 10 17 1020.4 - 0.8 - - - - - - -
22/08:00pm 16.9 ESE 9 14 1020.1 - 0.8 - - - - - - -
22/07:30pm 17.0 ESE 11 16 1020.0 - 0.8 - - - - - - -
22/07:00pm 16.7 ESE 9 15 1019.9 - 0.8 - - - - - - -
22/06:30pm 16.8 ESE 13 19 1019.7 - 0.8 - - - - - - -
22/06:00pm 17.4 ESE 13 21 1019.2 - 0.8 - - - - - - -
22/05:30pm 18.9 ESE 11 18 1019.2 - 0.8 - - - - - - -
22/05:00pm 19.1 ESE 10 17 1018.8 - 0.8 - - - - - - -
22/04:30pm 19.9 ESE 11 17 1018.5 - 0.8 - - - - - - -
22/04:00pm 20.2 ESE 12 17 1018.5 - 0.8 - - - - - - -
22/03:30pm 19.8 ESE 10 16 1018.3 - 0.8 - - - - - - -
22/03:00pm 18.8 ESE 8 14 1018.4 - 0.8 Recent precip. - - - - - -
22/02:30pm 18.1 ESE 8 13 1018.4 - 0.8 - - - - - - -
22/02:00pm 18.5 ESE 11 17 1018.6 - 0.6 - - - - - - -
22/01:30pm 18.7 E 9 15 1018.5 - 0.6 - - - - - - -
22/01:00pm 17.8 ESE 10 16 1018.5 - 0.6 - - - - - - -
22/12:30pm 17.1 ESE 9 16 1018.7 - 0.6 - - - - - - -
22/12:00pm 17.1 E 9 14 1018.7 - 0.6 Recent precip. - - - - - -
22/11:30am 17.0 ESE 9 14 1018.8 - 0.6 - - - - - - -
22/11:00am 17.2 ESE 7 13 1018.5 - 0.4 - - - - - - -
22/10:30am 16.9 ESE 9 15 1018.2 - 0.2 - - - - - - -
22/10:00am 17.3 SE 3 11 1017.5 - 0.0 - - - - - - -
22/09:30am 16.9 SE 3 6 1017.3 - 0.0 - - - - - - -
22/09:00am 16.5 ESE 8 13 1016.8 - 17.6 Recent precip. - - - - - -
22/08:30am 16.7 ESE 7 11 1016.5 - 17.4 - - - - - - -
22/08:00am 16.6 ESE 8 13 1015.7 - 16.8 - - - - - - -
22/07:30am 16.5 ESE 7 10 1015.5 - 15.2 - - - - - - -
22/07:00am 16.5 ESE 6 10 1014.9 - 15.0 - - - - - - -
22/06:30am 16.7 SSE 1 2 1014.7 - 14.2 - - - - - - -
22/06:00am 16.8 SE 4 7 1014.2 - 13.6 Rain - - - - - -
22/05:30am 17.1 SSE 4 6 1013.8 - 11.8 - - - - - - -
22/05:00am 17.0 SE 5 9 1013.4 - 11.0 - - - - - - -
22/04:30am 16.8 ESE 8 14 1013.4 - 10.6 - - - - - - -
22/04:00am 17.2 E 7 10 1012.8 - 10.0 - - - - - - -
22/03:30am 17.5 ESE 9 13 1012.8 - 9.6 - - - - - - -

Other Formats:

Comma delimited format used in spreadsheet applications
http://www.bom.gov.au/fwo/IDV60701/IDV60701.94911.axf

JavaScript Object Notation format (JSON) in row-major order
http://www.bom.gov.au/fwo/IDV60701/IDV60701.94911.json